createdAt,value
2018-07-26T00:00:38.835Z,25.88
2018-07-26T00:01:38.875Z,25.81
2018-07-26T00:02:38.806Z,25.88
2018-07-26T00:03:38.850Z,25.81
2018-07-26T00:04:38.800Z,25.81
2018-07-26T00:05:38.813Z,25.81
2018-07-26T00:06:38.867Z,25.81
2018-07-26T00:07:38.837Z,25.81
2018-07-26T00:08:38.842Z,25.75
2018-07-26T00:09:38.794Z,25.69
2018-07-26T00:10:38.820Z,25.75
2018-07-26T00:11:38.849Z,25.69
2018-07-26T00:12:38.816Z,25.69
2018-07-26T00:13:39.173Z,25.69
2018-07-26T00:14:38.860Z,25.62
2018-07-26T00:15:38.827Z,25.62
2018-07-26T00:16:38.857Z,25.62
2018-07-26T00:17:38.837Z,25.56
2018-07-26T00:18:38.824Z,25.56
2018-07-26T00:19:39.310Z,25.56
2018-07-26T00:20:38.858Z,25.56
2018-07-26T00:21:39.356Z,25.56
2018-07-26T00:22:38.816Z,25.56
2018-07-26T00:23:38.809Z,25.56
2018-07-26T00:24:38.811Z,25.5
2018-07-26T00:25:38.784Z,25.44
2018-07-26T00:26:38.815Z,25.44
2018-07-26T00:27:39.355Z,25.44
2018-07-26T00:28:38.801Z,25.31
2018-07-26T00:29:38.827Z,25.19
2018-07-26T00:30:38.815Z,25.25
2018-07-26T00:31:38.815Z,25.31
2018-07-26T00:32:38.820Z,25.25
2018-07-26T00:33:38.833Z,25.31
2018-07-26T00:34:38.793Z,25.31
2018-07-26T00:35:38.798Z,25.19
2018-07-26T00:36:38.817Z,25.19
2018-07-26T00:37:38.798Z,25.19
2018-07-26T00:38:38.792Z,25.19
2018-07-26T00:39:38.833Z,25.19
2018-07-26T00:40:38.803Z,25.19
2018-07-26T00:41:38.811Z,25.19
2018-07-26T00:42:38.802Z,25.19
2018-07-26T00:43:38.825Z,25.19
2018-07-26T00:44:38.832Z,25.12
2018-07-26T00:45:38.843Z,25.19
2018-07-26T00:46:38.875Z,25.12
2018-07-26T00:47:38.816Z,25.19
2018-07-26T00:48:39.160Z,25.12
2018-07-26T00:49:38.803Z,25.06
2018-07-26T00:50:39.186Z,25.06
2018-07-26T00:51:38.843Z,25.06
2018-07-26T00:52:38.860Z,25
2018-07-26T00:53:38.876Z,25.06
2018-07-26T00:54:38.957Z,25.06
2018-07-26T00:55:38.803Z,25.06
2018-07-26T00:56:38.849Z,25.06
2018-07-26T00:57:38.845Z,25
2018-07-26T00:58:38.931Z,25
2018-07-26T00:59:38.936Z,25
2018-07-26T01:00:38.800Z,25
2018-07-26T01:01:38.997Z,25
2018-07-26T01:02:38.822Z,25
2018-07-26T01:03:38.873Z,24.94
2018-07-26T01:04:38.802Z,24.94
2018-07-26T01:05:38.872Z,25
2018-07-26T01:06:38.861Z,24.94
2018-07-26T01:07:38.814Z,25
2018-07-26T01:08:38.820Z,25
2018-07-26T01:09:39.449Z,25
2018-07-26T01:10:39.090Z,25
2018-07-26T01:11:38.810Z,24.94
2018-07-26T01:12:38.860Z,24.87
2018-07-26T01:13:38.799Z,24.94
2018-07-26T01:14:38.803Z,24.94
2018-07-26T01:15:38.817Z,24.87
2018-07-26T01:16:38.822Z,24.87
2018-07-26T01:17:38.841Z,24.87
2018-07-26T01:18:38.904Z,24.87
2018-07-26T01:19:38.835Z,24.81
2018-07-26T01:20:38.819Z,24.81
2018-07-26T01:21:38.777Z,24.81
2018-07-26T01:22:38.780Z,24.81
2018-07-26T01:23:38.833Z,24.75
2018-07-26T01:24:38.826Z,24.69
2018-07-26T01:25:38.809Z,24.69
2018-07-26T01:26:38.781Z,24.69
2018-07-26T01:27:38.790Z,24.63
2018-07-26T01:28:38.810Z,24.69
2018-07-26T01:29:38.910Z,24.69
2018-07-26T01:30:38.879Z,24.63
2018-07-26T01:31:38.821Z,24.69
2018-07-26T01:32:38.806Z,24.63
2018-07-26T01:33:39.133Z,24.63
2018-07-26T01:34:38.920Z,24.63
2018-07-26T01:35:38.878Z,24.56
2018-07-26T01:36:38.791Z,24.56
2018-07-26T01:37:38.862Z,24.56
2018-07-26T01:38:38.819Z,24.56
2018-07-26T01:39:38.783Z,24.56
2018-07-26T01:40:39.032Z,24.56
2018-07-26T01:41:38.952Z,24.5
2018-07-26T01:42:38.792Z,24.56
2018-07-26T01:43:38.779Z,24.56
2018-07-26T01:44:38.796Z,24.5
2018-07-26T01:45:38.805Z,24.5
2018-07-26T01:46:38.800Z,24.5
2018-07-26T01:47:38.781Z,24.5
2018-07-26T01:48:38.797Z,24.5
2018-07-26T01:49:38.821Z,24.5
2018-07-26T01:50:38.790Z,24.56
2018-07-26T01:51:38.827Z,24.56
2018-07-26T01:52:38.774Z,24.5
2018-07-26T01:53:38.771Z,24.5
2018-07-26T01:54:39.142Z,24.5
2018-07-26T01:55:38.788Z,24.5
2018-07-26T01:56:38.807Z,24.5
2018-07-26T01:57:38.783Z,24.5
2018-07-26T01:58:38.830Z,24.44
2018-07-26T01:59:38.823Z,24.5
2018-07-26T02:00:38.822Z,24.5
2018-07-26T02:01:39.292Z,24.44
2018-07-26T02:02:38.798Z,24.44
2018-07-26T02:03:38.822Z,24.44
2018-07-26T02:04:38.767Z,24.44
2018-07-26T02:05:38.845Z,24.5
2018-07-26T02:06:38.810Z,24.44
2018-07-26T02:07:38.857Z,24.44
2018-07-26T02:08:38.805Z,24.5
2018-07-26T02:09:38.788Z,24.44
2018-07-26T02:10:39.108Z,24.5
2018-07-26T02:11:38.786Z,24.5
2018-07-26T02:12:38.788Z,24.5
2018-07-26T02:13:38.817Z,24.5
2018-07-26T02:14:38.826Z,24.5
2018-07-26T02:15:38.778Z,24.44
2018-07-26T02:16:38.829Z,24.5
2018-07-26T02:17:38.772Z,24.5
2018-07-26T02:18:38.819Z,24.5
2018-07-26T02:19:38.783Z,24.5
2018-07-26T02:20:38.774Z,24.5
2018-07-26T02:21:38.792Z,24.5
2018-07-26T02:22:38.779Z,24.5
2018-07-26T02:23:38.788Z,24.44
2018-07-26T02:24:38.803Z,24.5
2018-07-26T02:25:38.859Z,24.44
2018-07-26T02:26:38.935Z,24.44
2018-07-26T02:27:38.794Z,24.44
2018-07-26T02:28:38.843Z,24.44
2018-07-26T02:29:38.799Z,24.44
2018-07-26T02:30:38.820Z,24.44
2018-07-26T02:31:38.835Z,24.44
2018-07-26T02:32:38.827Z,24.37
2018-07-26T02:33:38.808Z,24.44
2018-07-26T02:34:38.794Z,24.44
2018-07-26T02:35:38.830Z,24.44
2018-07-26T02:36:38.983Z,24.44
2018-07-26T02:37:38.846Z,24.44
2018-07-26T02:38:38.796Z,24.37
2018-07-26T02:39:38.786Z,24.44
2018-07-26T02:40:38.829Z,24.44
2018-07-26T02:41:38.824Z,24.37
2018-07-26T02:42:38.835Z,24.37
2018-07-26T02:43:38.807Z,24.31
2018-07-26T02:44:38.827Z,24.25
2018-07-26T02:45:38.909Z,24.25
2018-07-26T02:46:39.381Z,24.12
2018-07-26T02:47:38.850Z,24.06
2018-07-26T02:48:38.942Z,24
2018-07-26T02:49:38.811Z,23.94
2018-07-26T02:50:38.770Z,23.94
2018-07-26T02:51:38.973Z,23.94
2018-07-26T02:52:38.782Z,23.87
2018-07-26T02:53:38.823Z,23.81
2018-07-26T02:54:38.780Z,23.81
2018-07-26T02:55:38.775Z,23.81
2018-07-26T02:56:38.792Z,23.81
2018-07-26T02:57:38.811Z,23.81
2018-07-26T02:58:38.812Z,23.81
2018-07-26T02:59:38.865Z,23.81
2018-07-26T03:00:38.812Z,23.81
2018-07-26T03:01:38.801Z,23.81
2018-07-26T03:02:38.797Z,23.81
2018-07-26T03:03:38.826Z,23.81
2018-07-26T03:04:38.839Z,23.81
2018-07-26T03:05:38.863Z,23.81
2018-07-26T03:06:38.781Z,23.75
2018-07-26T03:07:38.780Z,23.75
2018-07-26T03:08:38.823Z,23.75
2018-07-26T03:09:38.802Z,23.69
2018-07-26T03:10:38.797Z,23.62
2018-07-26T03:11:38.794Z,23.62
2018-07-26T03:12:38.763Z,23.62
2018-07-26T03:13:38.796Z,23.62
2018-07-26T03:14:38.778Z,23.62
2018-07-26T03:15:38.807Z,23.62
2018-07-26T03:16:38.789Z,23.62
2018-07-26T03:17:38.804Z,23.62
2018-07-26T03:18:38.794Z,23.62
2018-07-26T03:19:38.860Z,23.62
2018-07-26T03:20:38.818Z,23.62
2018-07-26T03:21:38.793Z,23.62
2018-07-26T03:22:38.811Z,23.56
2018-07-26T03:23:38.808Z,23.56
2018-07-26T03:24:38.820Z,23.56
2018-07-26T03:25:38.769Z,23.5
2018-07-26T03:26:38.807Z,23.5
2018-07-26T03:27:38.761Z,23.5
2018-07-26T03:28:38.768Z,23.5
2018-07-26T03:29:38.954Z,23.5
2018-07-26T03:30:38.790Z,23.5
2018-07-26T03:31:38.844Z,23.5
2018-07-26T03:32:38.794Z,23.5
2018-07-26T03:33:38.854Z,23.44
2018-07-26T03:34:38.834Z,23.5
2018-07-26T03:35:38.755Z,23.5
2018-07-26T03:36:38.797Z,23.44
2018-07-26T03:37:38.778Z,23.44
2018-07-26T03:38:38.761Z,23.44
2018-07-26T03:39:38.794Z,23.44
2018-07-26T03:40:38.825Z,23.38
2018-07-26T03:41:38.769Z,23.38
2018-07-26T03:42:38.801Z,23.38
2018-07-26T03:43:39.530Z,23.38
2018-07-26T03:44:38.773Z,23.31
2018-07-26T03:45:38.786Z,23.38
2018-07-26T03:46:38.953Z,23.38
2018-07-26T03:47:38.844Z,23.38
2018-07-26T03:48:38.748Z,23.38
2018-07-26T03:49:38.770Z,23.38
2018-07-26T03:50:38.840Z,23.38
2018-07-26T03:51:38.790Z,23.31
2018-07-26T03:52:39.140Z,23.38
2018-07-26T03:53:38.775Z,23.31
2018-07-26T03:54:38.953Z,23.31
2018-07-26T03:55:38.789Z,23.31
2018-07-26T03:56:38.815Z,23.31
2018-07-26T03:57:38.793Z,23.38
2018-07-26T03:58:38.757Z,23.38
2018-07-26T03:59:38.778Z,23.31
2018-07-26T04:00:38.902Z,23.31
2018-07-26T04:02:44.667Z,23.31
2018-07-26T04:03:38.815Z,23.31
2018-07-26T04:04:38.757Z,23.25
2018-07-26T04:05:38.785Z,23.25
2018-07-26T04:06:38.758Z,23.19
2018-07-26T04:07:38.764Z,23.19
2018-07-26T04:08:38.750Z,23.19
2018-07-26T04:09:38.800Z,23.19
2018-07-26T04:10:38.794Z,23.19
2018-07-26T04:11:38.793Z,23.19
2018-07-26T04:12:38.771Z,23.19
2018-07-26T04:13:38.770Z,23.12
2018-07-26T04:14:38.752Z,23.19
2018-07-26T04:15:38.774Z,23.12
2018-07-26T04:16:39.100Z,23.19
2018-07-26T04:17:38.766Z,23.19
2018-07-26T04:18:38.747Z,23.12
2018-07-26T04:19:38.755Z,23.19
2018-07-26T04:20:38.767Z,23.12
2018-07-26T04:21:38.792Z,23.06
2018-07-26T04:22:38.786Z,23.12
2018-07-26T04:23:38.754Z,23.06
2018-07-26T04:24:38.777Z,23
2018-07-26T04:25:38.767Z,23
2018-07-26T04:26:38.774Z,22.94
2018-07-26T04:27:38.778Z,22.94
2018-07-26T04:28:38.781Z,22.87
2018-07-26T04:29:38.767Z,22.75
2018-07-26T04:30:38.783Z,22.69
2018-07-26T04:31:38.790Z,22.69
2018-07-26T04:32:38.745Z,22.69
2018-07-26T04:33:38.784Z,22.69
2018-07-26T04:34:38.744Z,22.56
2018-07-26T04:35:38.750Z,22.5
2018-07-26T04:36:38.780Z,22.44
2018-07-26T04:37:38.856Z,22.44
2018-07-26T04:38:38.765Z,22.37
2018-07-26T04:39:38.882Z,22.37
2018-07-26T04:40:38.928Z,22.31
2018-07-26T04:41:38.783Z,22.31
2018-07-26T04:42:38.794Z,22.37
2018-07-26T04:43:38.747Z,22.37
2018-07-26T04:44:38.874Z,22.44
2018-07-26T04:45:38.806Z,22.44
2018-07-26T04:46:38.785Z,22.44
2018-07-26T04:47:38.795Z,22.5
2018-07-26T04:48:38.752Z,22.5
2018-07-26T04:49:38.756Z,22.56
2018-07-26T04:50:38.801Z,22.56
2018-07-26T04:51:38.758Z,22.56
2018-07-26T04:52:38.997Z,22.62
2018-07-26T04:53:38.759Z,22.62
2018-07-26T04:54:39.482Z,22.62
2018-07-26T04:55:38.784Z,22.69
2018-07-26T04:56:38.796Z,22.62
2018-07-26T04:57:38.768Z,22.69
2018-07-26T04:58:38.773Z,22.69
2018-07-26T04:59:38.812Z,22.62
2018-07-26T05:00:38.763Z,22.69
2018-07-26T05:01:38.939Z,22.75
2018-07-26T05:02:38.760Z,22.75
2018-07-26T05:03:38.748Z,22.75
2018-07-26T05:04:38.805Z,22.75
2018-07-26T05:05:38.746Z,22.81
2018-07-26T05:06:38.799Z,22.81
2018-07-26T05:07:38.897Z,22.87
2018-07-26T05:08:38.742Z,22.87
2018-07-26T05:09:38.790Z,22.94
2018-07-26T05:10:38.800Z,22.94
2018-07-26T05:11:38.813Z,22.94
2018-07-26T05:12:38.804Z,22.94
2018-07-26T05:13:38.785Z,22.94
2018-07-26T05:14:38.978Z,23
2018-07-26T05:15:38.927Z,23.06
2018-07-26T05:16:38.732Z,23
2018-07-26T05:17:38.856Z,23.06
2018-07-26T05:18:38.813Z,23.06
2018-07-26T05:19:38.742Z,23.06
2018-07-26T05:20:38.767Z,23.12
2018-07-26T05:21:38.809Z,23.06
2018-07-26T05:22:38.750Z,23.12
2018-07-26T05:23:38.755Z,23.19
2018-07-26T05:24:38.822Z,23.19
2018-07-26T05:25:38.741Z,23.19
2018-07-26T05:26:38.767Z,23.25
2018-07-26T05:27:39.154Z,23.25
2018-07-26T05:28:38.735Z,23.25
2018-07-26T05:29:38.770Z,23.31
2018-07-26T05:30:38.776Z,23.25
2018-07-26T05:31:38.809Z,23.31
2018-07-26T05:32:38.757Z,23.31
2018-07-26T05:33:38.750Z,23.31
2018-07-26T05:34:38.754Z,23.31
2018-07-26T05:35:38.743Z,23.31
2018-07-26T05:36:38.731Z,23.38
2018-07-26T05:37:39.173Z,23.38
2018-07-26T05:38:38.776Z,23.38
2018-07-26T05:39:38.758Z,23.44
2018-07-26T05:40:38.753Z,23.44
2018-07-26T05:41:38.753Z,23.44
2018-07-26T05:42:38.743Z,23.5
2018-07-26T05:43:38.757Z,23.44
2018-07-26T05:44:38.729Z,23.44
2018-07-26T05:45:38.760Z,23.5
2018-07-26T05:46:38.726Z,23.5
2018-07-26T05:47:38.750Z,23.44
2018-07-26T05:48:38.719Z,23.5
2018-07-26T05:49:38.754Z,23.5
2018-07-26T05:50:38.757Z,23.5
2018-07-26T05:51:38.750Z,23.56
2018-07-26T05:52:38.761Z,23.56
2018-07-26T05:53:38.751Z,23.62
2018-07-26T05:54:38.771Z,23.62
2018-07-26T05:55:38.772Z,23.62
2018-07-26T05:56:38.777Z,23.69
2018-07-26T05:57:38.807Z,23.69
2018-07-26T05:58:38.779Z,23.69
2018-07-26T05:59:38.761Z,23.75
2018-07-26T06:00:38.755Z,23.75
2018-07-26T06:01:38.727Z,23.81
2018-07-26T06:02:38.818Z,23.81
2018-07-26T06:03:38.715Z,23.87
2018-07-26T06:04:38.805Z,23.87
2018-07-26T06:05:38.839Z,23.87
2018-07-26T06:06:38.829Z,23.87
2018-07-26T06:07:38.793Z,23.94
2018-07-26T06:08:38.730Z,23.94
2018-07-26T06:09:39.252Z,23.94
2018-07-26T06:10:38.745Z,24
2018-07-26T06:11:38.741Z,24.06
2018-07-26T06:12:38.763Z,24.06
2018-07-26T06:13:38.738Z,24.12
2018-07-26T06:14:38.929Z,24.12
2018-07-26T06:15:38.728Z,24.12
2018-07-26T06:16:38.734Z,24.19
2018-07-26T06:17:38.829Z,24.19
2018-07-26T06:18:38.739Z,24.25
2018-07-26T06:19:38.739Z,24.25
2018-07-26T06:20:39.256Z,24.25
2018-07-26T06:21:38.797Z,24.25
2018-07-26T06:22:38.758Z,24.31
2018-07-26T06:23:38.729Z,24.31
2018-07-26T06:24:38.768Z,24.37
2018-07-26T06:25:38.718Z,24.37
2018-07-26T06:26:38.832Z,24.37
2018-07-26T06:27:38.834Z,24.37
2018-07-26T06:28:38.768Z,24.44
2018-07-26T06:29:38.726Z,24.44
2018-07-26T06:30:38.824Z,24.44
2018-07-26T06:31:38.744Z,24.5
2018-07-26T06:32:38.754Z,24.5
2018-07-26T06:33:40.304Z,24.56
2018-07-26T06:34:38.750Z,24.56
2018-07-26T06:35:39.011Z,24.63
2018-07-26T06:36:38.864Z,24.63
2018-07-26T06:37:38.780Z,24.63
2018-07-26T06:38:38.733Z,24.69
2018-07-26T06:39:38.741Z,24.75
2018-07-26T06:40:38.741Z,24.75
2018-07-26T06:41:39.073Z,24.81
2018-07-26T06:42:38.783Z,24.81
2018-07-26T06:43:38.785Z,24.81
2018-07-26T06:44:38.717Z,24.87
2018-07-26T06:45:39.595Z,24.87
2018-07-26T06:46:38.774Z,24.87
2018-07-26T06:47:38.735Z,24.94
2018-07-26T06:48:38.731Z,24.94
2018-07-26T06:49:38.726Z,24.94
2018-07-26T06:50:38.774Z,24.94
2018-07-26T06:51:38.889Z,24.94
2018-07-26T06:52:38.728Z,25
2018-07-26T06:53:38.752Z,25
2018-07-26T06:54:38.743Z,25.06
2018-07-26T06:55:38.716Z,25.06
2018-07-26T06:56:38.772Z,25.12
2018-07-26T06:57:38.720Z,25.12
2018-07-26T06:58:38.746Z,25.12
2018-07-26T06:59:38.743Z,25.19
2018-07-26T07:00:38.788Z,25.19
2018-07-26T07:01:38.744Z,25.25
2018-07-26T07:02:38.736Z,25.25
2018-07-26T07:03:38.715Z,25.25
2018-07-26T07:04:38.796Z,25.25
2018-07-26T07:05:38.745Z,25.31
2018-07-26T07:06:38.735Z,25.31
2018-07-26T07:07:38.767Z,25.37
2018-07-26T07:08:38.720Z,25.44
2018-07-26T07:09:38.725Z,25.44
2018-07-26T07:10:38.774Z,25.5
2018-07-26T07:11:38.734Z,25.5
2018-07-26T07:12:38.767Z,25.5
2018-07-26T07:13:38.727Z,25.56
2018-07-26T07:14:38.798Z,25.62
2018-07-26T07:15:38.744Z,25.62
2018-07-26T07:16:38.739Z,25.69
2018-07-26T07:17:38.810Z,25.69
2018-07-26T07:18:38.997Z,25.75
2018-07-26T07:19:38.754Z,25.81
2018-07-26T07:20:38.859Z,25.88
2018-07-26T07:21:38.783Z,25.88
2018-07-26T07:22:38.743Z,25.94
2018-07-26T07:23:38.801Z,26
2018-07-26T07:24:38.844Z,26
2018-07-26T07:25:38.738Z,26
2018-07-26T07:26:38.770Z,26.06
2018-07-26T07:27:38.969Z,26.12
2018-07-26T07:28:38.718Z,26.19
2018-07-26T07:29:38.725Z,26.19
2018-07-26T07:30:38.794Z,26.25
2018-07-26T07:31:38.906Z,26.25
2018-07-26T07:32:38.778Z,26.25
2018-07-26T07:33:38.809Z,26.31
2018-07-26T07:34:38.827Z,26.37
2018-07-26T07:35:38.788Z,26.37
2018-07-26T07:36:38.738Z,26.44
2018-07-26T07:37:38.701Z,26.5
2018-07-26T07:38:38.777Z,26.5
2018-07-26T07:39:38.715Z,26.56
2018-07-26T07:40:38.791Z,26.62
2018-07-26T07:41:38.699Z,26.62
2018-07-26T07:42:39.189Z,26.69
2018-07-26T07:43:38.710Z,26.69
2018-07-26T07:44:39.100Z,26.75
2018-07-26T07:45:38.736Z,26.75
2018-07-26T07:46:39.253Z,26.75
2018-07-26T07:47:39.477Z,26.81
2018-07-26T07:48:38.851Z,26.87
2018-07-26T07:49:38.772Z,26.94
2018-07-26T07:50:38.793Z,27
2018-07-26T07:51:38.758Z,27.06
2018-07-26T07:52:38.702Z,27.06
2018-07-26T07:53:38.746Z,27.13
2018-07-26T07:54:38.765Z,27.19
2018-07-26T07:55:39.401Z,27.19
2018-07-26T07:56:38.886Z,27.19
2018-07-26T07:57:38.929Z,27.19
2018-07-26T07:58:38.810Z,27.25
2018-07-26T07:59:39.352Z,27.31
2018-07-26T08:00:38.705Z,27.31
2018-07-26T08:01:38.741Z,27.37
2018-07-26T08:02:38.720Z,27.44
2018-07-26T08:03:38.712Z,27.44
2018-07-26T08:04:38.755Z,27.44
2018-07-26T08:05:38.795Z,27.5
2018-07-26T08:06:38.960Z,27.5
2018-07-26T08:07:38.711Z,27.56
2018-07-26T08:08:38.715Z,27.56
2018-07-26T08:09:38.754Z,27.69
2018-07-26T08:10:38.716Z,27.69
2018-07-26T08:11:38.724Z,27.75
2018-07-26T08:12:39.358Z,27.81
2018-07-26T08:13:38.718Z,27.75
2018-07-26T08:14:38.694Z,27.81
2018-07-26T08:15:38.703Z,27.81
2018-07-26T08:16:38.697Z,28
2018-07-26T08:17:38.697Z,28
2018-07-26T08:18:38.709Z,28
2018-07-26T08:19:38.751Z,28.06
2018-07-26T08:20:38.737Z,28.06
2018-07-26T08:21:38.715Z,28.12
2018-07-26T08:22:38.706Z,28.19
2018-07-26T08:23:38.714Z,28.19
2018-07-26T08:24:38.687Z,28.19
2018-07-26T08:25:38.731Z,28.19
2018-07-26T08:26:38.729Z,28.25
2018-07-26T08:27:38.772Z,28.31
2018-07-26T08:28:38.705Z,28.38
2018-07-26T08:29:38.750Z,28.38
2018-07-26T08:30:38.738Z,28.44
2018-07-26T08:31:38.698Z,28.44
2018-07-26T08:32:39.333Z,28.44
2018-07-26T08:33:38.721Z,28.5
2018-07-26T08:34:38.727Z,28.5
2018-07-26T08:35:39.043Z,28.5
2018-07-26T08:36:38.846Z,28.56
2018-07-26T08:37:39.558Z,28.56
2018-07-26T08:38:38.691Z,28.62
2018-07-26T08:39:38.763Z,28.62
2018-07-26T08:40:38.777Z,28.62
2018-07-26T08:41:38.732Z,28.62
2018-07-26T08:42:38.707Z,28.69
2018-07-26T08:43:39.220Z,28.75
2018-07-26T08:44:38.685Z,28.81
2018-07-26T08:45:38.705Z,28.81
2018-07-26T08:46:38.739Z,28.81
2018-07-26T08:47:38.768Z,28.87
2018-07-26T08:48:38.764Z,28.87
2018-07-26T08:49:38.706Z,28.87
2018-07-26T08:50:38.717Z,28.87
2018-07-26T08:51:38.701Z,29
2018-07-26T08:52:38.792Z,29
2018-07-26T08:53:38.704Z,29.06
2018-07-26T08:54:38.657Z,29.12
2018-07-26T08:55:41.690Z,29.12
2018-07-26T08:56:41.868Z,29.12
2018-07-26T08:57:38.714Z,29.19
2018-07-26T08:58:38.735Z,29.19
2018-07-26T08:59:38.700Z,29.25
2018-07-26T09:00:38.729Z,29.31
2018-07-26T09:01:38.785Z,29.31
2018-07-26T09:02:38.956Z,29.31
2018-07-26T09:03:38.730Z,29.37
2018-07-26T09:04:38.673Z,29.44
2018-07-26T09:05:38.688Z,29.5
2018-07-26T09:06:38.710Z,29.5
2018-07-26T09:07:38.677Z,29.56
2018-07-26T09:08:38.970Z,29.56
2018-07-26T09:09:38.717Z,29.63
2018-07-26T09:10:38.762Z,29.69
2018-07-26T09:11:39.626Z,29.69
2018-07-26T09:12:38.741Z,29.75
2018-07-26T09:13:38.924Z,29.81
2018-07-26T09:14:38.713Z,29.81
2018-07-26T09:15:38.742Z,29.94
2018-07-26T09:16:38.729Z,29.94
2018-07-26T09:17:38.696Z,29.94
2018-07-26T09:18:38.866Z,30
2018-07-26T09:19:39.160Z,30
2018-07-26T09:20:38.795Z,30.06
2018-07-26T09:21:38.684Z,30.06
2018-07-26T09:22:38.700Z,30.06
2018-07-26T09:23:38.694Z,30.06
2018-07-26T09:24:38.756Z,30.12
2018-07-26T09:25:38.718Z,30.12
2018-07-26T09:26:38.683Z,30.12
2018-07-26T09:27:38.689Z,30.19
2018-07-26T09:28:38.714Z,30.25
2018-07-26T09:29:38.724Z,30.31
2018-07-26T09:30:38.685Z,30.31
2018-07-26T09:31:38.694Z,30.37
2018-07-26T09:32:38.693Z,30.37
2018-07-26T09:33:38.727Z,30.44
2018-07-26T09:34:38.751Z,30.44
2018-07-26T09:35:38.700Z,30.44
2018-07-26T09:36:38.678Z,30.5
2018-07-26T09:37:38.707Z,30.56
2018-07-26T09:38:38.729Z,30.5
2018-07-26T09:39:38.676Z,30.56
2018-07-26T09:40:38.703Z,30.56
2018-07-26T09:41:38.872Z,30.56
2018-07-26T09:42:38.800Z,30.56
2018-07-26T09:43:38.874Z,30.62
2018-07-26T09:44:38.792Z,30.62
2018-07-26T09:45:38.736Z,30.62
2018-07-26T09:46:38.703Z,30.69
2018-07-26T09:47:38.924Z,30.69
2018-07-26T09:48:38.718Z,30.69
2018-07-26T09:49:39.117Z,30.69
2018-07-26T09:50:38.837Z,30.75
2018-07-26T09:51:38.699Z,30.75
2018-07-26T09:52:38.848Z,30.81
2018-07-26T09:53:38.871Z,30.81
2018-07-26T09:54:38.864Z,30.75
2018-07-26T09:55:39.087Z,30.81
2018-07-26T09:56:38.771Z,30.88
2018-07-26T09:57:38.769Z,30.94
2018-07-26T09:58:38.786Z,30.94
2018-07-26T09:59:38.680Z,30.94
2018-07-26T10:00:38.892Z,30.94
2018-07-26T10:01:38.796Z,31
2018-07-26T10:02:38.851Z,31.06
2018-07-26T10:03:38.822Z,31.06
2018-07-26T10:04:39.035Z,31.06
2018-07-26T10:05:39.904Z,31.19
2018-07-26T10:06:38.740Z,31.19
2018-07-26T10:07:38.690Z,31.25
2018-07-26T10:08:38.727Z,31.25
2018-07-26T10:09:38.798Z,31.31
2018-07-26T10:10:38.718Z,31.31
2018-07-26T10:11:38.715Z,31.44
2018-07-26T10:12:38.782Z,31.44
2018-07-26T10:13:38.687Z,31.5
2018-07-26T10:14:38.688Z,31.56
2018-07-26T10:15:38.773Z,31.56
2018-07-26T10:16:38.725Z,31.56
2018-07-26T10:17:38.759Z,31.62
2018-07-26T10:18:38.738Z,31.56
2018-07-26T10:19:38.947Z,31.37
2018-07-26T10:20:38.711Z,31.37
2018-07-26T10:21:38.780Z,31.37
2018-07-26T10:22:38.798Z,31.37
2018-07-26T10:23:38.849Z,31.37
2018-07-26T10:24:38.838Z,31.44
2018-07-26T10:25:38.921Z,31.56
2018-07-26T10:26:38.928Z,31.56
2018-07-26T10:27:39.069Z,31.62
2018-07-26T10:28:38.707Z,31.62
2018-07-26T10:29:38.741Z,31.62
2018-07-26T10:30:38.716Z,31.62
2018-07-26T10:31:38.730Z,31.62
2018-07-26T10:32:38.828Z,31.62
2018-07-26T10:33:38.709Z,31.69
2018-07-26T10:34:38.860Z,31.75
2018-07-26T10:35:38.690Z,31.75
2018-07-26T10:36:38.696Z,31.81
2018-07-26T10:37:38.698Z,31.81
2018-07-26T10:38:38.853Z,31.87
2018-07-26T10:39:38.683Z,31.81
2018-07-26T10:40:38.715Z,31.87
2018-07-26T10:41:38.764Z,31.87
2018-07-26T10:42:38.736Z,31.94
2018-07-26T10:43:38.752Z,32
2018-07-26T10:44:39.434Z,32
2018-07-26T10:45:38.695Z,32
2018-07-26T10:46:38.723Z,32.13
2018-07-26T10:47:38.706Z,32.13
2018-07-26T10:48:38.718Z,32.06
2018-07-26T10:49:38.716Z,32.13
2018-07-26T10:50:38.867Z,32.19
2018-07-26T10:51:38.731Z,32.19
2018-07-26T10:52:38.762Z,32.25
2018-07-26T10:53:38.860Z,32.25
2018-07-26T10:54:38.674Z,32.31
2018-07-26T10:55:38.917Z,32.31
2018-07-26T10:56:38.735Z,32.31
2018-07-26T10:57:38.717Z,32.31
2018-07-26T10:58:38.677Z,32.38
2018-07-26T10:59:38.701Z,32.44
2018-07-26T11:00:38.693Z,32.44
2018-07-26T11:01:38.805Z,32.44
2018-07-26T11:02:38.668Z,32.5
2018-07-26T11:03:38.979Z,32.5
2018-07-26T11:04:38.916Z,32.5
2018-07-26T11:05:38.936Z,32.5
2018-07-26T11:06:38.816Z,32.56
2018-07-26T11:07:38.680Z,32.56
2018-07-26T11:08:38.882Z,32.56
2018-07-26T11:09:39.195Z,32.56
2018-07-26T11:10:38.846Z,32.56
2018-07-26T11:11:38.742Z,32.56
2018-07-26T11:12:38.715Z,32.63
2018-07-26T11:13:38.778Z,32.56
2018-07-26T11:14:38.821Z,32.56
2018-07-26T11:15:38.704Z,32.63
2018-07-26T11:16:39.417Z,32.63
2018-07-26T11:17:38.762Z,32.63
2018-07-26T11:18:38.718Z,32.63
2018-07-26T11:19:38.769Z,32.69
2018-07-26T11:20:38.685Z,32.63
2018-07-26T11:21:38.752Z,32.69
2018-07-26T11:22:38.692Z,32.63
2018-07-26T11:23:38.864Z,32.63
2018-07-26T11:24:38.736Z,32.63
2018-07-26T11:25:39.347Z,32.63
2018-07-26T11:26:38.750Z,32.75
2018-07-26T11:27:38.883Z,32.75
2018-07-26T11:28:38.691Z,32.81
2018-07-26T11:29:39.259Z,32.81
2018-07-26T11:30:38.734Z,32.88
2018-07-26T11:31:38.684Z,32.88
2018-07-26T11:32:39.365Z,32.94
2018-07-26T11:33:38.828Z,32.94
2018-07-26T11:34:38.694Z,32.94
2018-07-26T11:35:38.766Z,32.88
2018-07-26T11:36:38.687Z,32.88
2018-07-26T11:37:38.706Z,32.94
2018-07-26T11:38:38.697Z,33
2018-07-26T11:39:38.729Z,33.06
2018-07-26T11:40:39.302Z,33.13
2018-07-26T11:41:39.060Z,33.19
2018-07-26T11:42:38.790Z,33.19
2018-07-26T11:43:39.073Z,33.25
2018-07-26T11:44:38.755Z,33.25
2018-07-26T11:45:38.737Z,33.31
2018-07-26T11:46:38.884Z,33.31
2018-07-26T11:47:38.699Z,33.25
2018-07-26T11:48:38.813Z,33.38
2018-07-26T11:49:38.704Z,33.31
2018-07-26T11:50:38.690Z,33.31
2018-07-26T11:51:38.694Z,33.38
2018-07-26T11:52:39.110Z,33.38
2018-07-26T11:53:38.712Z,33.38
2018-07-26T11:54:38.895Z,33.38
2018-07-26T11:55:38.687Z,33.44
2018-07-26T11:56:38.701Z,33.38
2018-07-26T11:57:38.693Z,33.44
2018-07-26T11:58:38.753Z,33.5
2018-07-26T11:59:38.700Z,33.56
2018-07-26T12:00:38.736Z,33.56
2018-07-26T12:01:39.400Z,33.63
2018-07-26T12:02:38.698Z,33.63
2018-07-26T12:03:38.811Z,33.63
2018-07-26T12:04:38.698Z,33.63
2018-07-26T12:05:38.691Z,33.69
2018-07-26T12:06:38.687Z,33.69
2018-07-26T12:07:38.798Z,33.75
2018-07-26T12:08:38.694Z,33.75
2018-07-26T12:09:38.695Z,33.75
2018-07-26T12:10:38.736Z,33.81
2018-07-26T12:11:38.913Z,33.88
2018-07-26T12:12:38.798Z,33.88
2018-07-26T12:13:38.737Z,33.75
2018-07-26T12:14:38.688Z,33.75
2018-07-26T12:15:38.697Z,33.81
2018-07-26T12:16:38.727Z,33.94
2018-07-26T12:17:39.007Z,33.94
2018-07-26T12:18:38.702Z,33.94
2018-07-26T12:19:39.112Z,33.88
2018-07-26T12:20:38.680Z,33.94
2018-07-26T12:21:38.713Z,33.94
2018-07-26T12:22:38.677Z,33.94
2018-07-26T12:23:38.707Z,34
2018-07-26T12:24:38.813Z,34
2018-07-26T12:25:38.688Z,34
2018-07-26T12:26:39.125Z,34.06
2018-07-26T12:27:38.694Z,34.06
2018-07-26T12:28:38.701Z,34.13
2018-07-26T12:29:42.711Z,34.19
2018-07-26T12:30:38.707Z,34.19
2018-07-26T12:31:38.693Z,34.13
2018-07-26T12:32:38.698Z,34.13
2018-07-26T12:33:38.743Z,34.19
2018-07-26T12:34:38.686Z,34.25
2018-07-26T12:35:38.687Z,34.25
2018-07-26T12:36:38.723Z,34.31
2018-07-26T12:37:38.779Z,34.31
2018-07-26T12:38:38.803Z,34.5
2018-07-26T12:39:38.696Z,34.5
2018-07-26T12:40:38.747Z,34.5
2018-07-26T12:41:38.696Z,34.56
2018-07-26T12:42:38.736Z,34.56
2018-07-26T12:43:39.303Z,34.63
2018-07-26T12:44:38.785Z,34.63
2018-07-26T12:45:38.672Z,34.63
2018-07-26T12:46:38.803Z,34.63
2018-07-26T12:47:39.324Z,34.56
2018-07-26T12:48:38.776Z,34.5
2018-07-26T12:49:38.712Z,34.5
2018-07-26T12:50:38.707Z,34.5
2018-07-26T12:51:38.684Z,34.56
2018-07-26T12:52:41.086Z,34.56
2018-07-26T12:53:38.740Z,34.63
2018-07-26T12:54:38.940Z,34.5
2018-07-26T12:55:39.132Z,34.56
2018-07-26T12:56:38.708Z,34.63
2018-07-26T12:57:38.767Z,34.69
2018-07-26T12:58:38.695Z,34.69
2018-07-26T12:59:38.657Z,34.69
2018-07-26T13:00:38.698Z,34.75